sensor_id;sensor_type;location;lat;lon;timestamp;temperature;humidity
63013;DHT22;62113;45.624;11.700;2022-09-27T00:00:34;18.10;74.50
63013;DHT22;62113;45.624;11.700;2022-09-27T00:03:00;18.00;74.50
63013;DHT22;62113;45.624;11.700;2022-09-27T00:05:27;18.10;74.60
63013;DHT22;62113;45.624;11.700;2022-09-27T00:07:53;18.20;74.60
63013;DHT22;62113;45.624;11.700;2022-09-27T00:10:18;18.10;74.50
63013;DHT22;62113;45.624;11.700;2022-09-27T00:12:44;18.20;74.50
63013;DHT22;62113;45.624;11.700;2022-09-27T00:15:10;18.20;74.70
63013;DHT22;62113;45.624;11.700;2022-09-27T00:17:36;18.30;74.10
63013;DHT22;62113;45.624;11.700;2022-09-27T00:20:04;18.20;73.90
63013;DHT22;62113;45.624;11.700;2022-09-27T00:22:30;18.20;74.10
63013;DHT22;62113;45.624;11.700;2022-09-27T00:24:56;18.20;73.90
63013;DHT22;62113;45.624;11.700;2022-09-27T00:27:23;18.20;74.00
63013;DHT22;62113;45.624;11.700;2022-09-27T00:29:49;18.10;74.30
63013;DHT22;62113;45.624;11.700;2022-09-27T00:32:15;18.20;74.90
63013;DHT22;62113;45.624;11.700;2022-09-27T00:34:41;18.10;74.40
63013;DHT22;62113;45.624;11.700;2022-09-27T00:37:07;18.20;74.30
63013;DHT22;62113;45.624;11.700;2022-09-27T00:39:33;18.20;74.10
63013;DHT22;62113;45.624;11.700;2022-09-27T00:41:59;18.20;73.80
63013;DHT22;62113;45.624;11.700;2022-09-27T00:49:58;18.20;73.30
63013;DHT22;62113;45.624;11.700;2022-09-27T00:55:19;18.20;73.80
63013;DHT22;62113;45.624;11.700;2022-09-27T00:57:48;18.20;73.90
63013;DHT22;62113;45.624;11.700;2022-09-27T01:00:14;18.20;74.40
63013;DHT22;62113;45.624;11.700;2022-09-27T01:02:46;18.20;74.30
63013;DHT22;62113;45.624;11.700;2022-09-27T01:05:14;18.20;74.50
63013;DHT22;62113;45.624;11.700;2022-09-27T01:07:40;18.20;74.50
63013;DHT22;62113;45.624;11.700;2022-09-27T01:10:06;18.20;74.00
63013;DHT22;62113;45.624;11.700;2022-09-27T01:13:06;18.20;73.80
63013;DHT22;62113;45.624;11.700;2022-09-27T01:15:48;18.10;73.90
63013;DHT22;62113;45.624;11.700;2022-09-27T01:26:36;18.00;74.90
63013;DHT22;62113;45.624;11.700;2022-09-27T01:29:10;18.00;74.60
63013;DHT22;62113;45.624;11.700;2022-09-27T01:31:47;18.00;74.90
63013;DHT22;62113;45.624;11.700;2022-09-27T01:34:28;18.00;75.10
63013;DHT22;62113;45.624;11.700;2022-09-27T01:37:23;18.10;75.70
63013;DHT22;62113;45.624;11.700;2022-09-27T01:40:01;18.10;75.60
63013;DHT22;62113;45.624;11.700;2022-09-27T01:45:24;18.20;76.10
63013;DHT22;62113;45.624;11.700;2022-09-27T01:47:52;18.20;76.00
63013;DHT22;62113;45.624;11.700;2022-09-27T01:50:35;18.20;76.10
63013;DHT22;62113;45.624;11.700;2022-09-27T01:53:26;18.20;76.00
63013;DHT22;62113;45.624;11.700;2022-09-27T01:55:54;18.20;76.00
63013;DHT22;62113;45.624;11.700;2022-09-27T02:01:08;18.20;76.00
63013;DHT22;62113;45.624;11.700;2022-09-27T02:03:39;18.20;76.20
63013;DHT22;62113;45.624;11.700;2022-09-27T02:06:24;18.20;75.30
63013;DHT22;62113;45.624;11.700;2022-09-27T02:08:55;18.20;75.70
63013;DHT22;62113;45.624;11.700;2022-09-27T02:11:22;18.20;75.90
63013;DHT22;62113;45.624;11.700;2022-09-27T02:14:19;18.20;75.40
63013;DHT22;62113;45.624;11.700;2022-09-27T02:16:54;18.20;75.40
63013;DHT22;62113;45.624;11.700;2022-09-27T02:24:56;18.20;73.60
63013;DHT22;62113;45.624;11.700;2022-09-27T02:27:33;18.20;73.60
63013;DHT22;62113;45.624;11.700;2022-09-27T02:30:07;18.10;73.60
63013;DHT22;62113;45.624;11.700;2022-09-27T02:32:34;17.90;74.00
63013;DHT22;62113;45.624;11.700;2022-09-27T02:35:06;17.80;74.60
63013;DHT22;62113;45.624;11.700;2022-09-27T02:37:33;17.60;74.80
63013;DHT22;62113;45.624;11.700;2022-09-27T02:39:59;17.60;75.30
63013;DHT22;62113;45.624;11.700;2022-09-27T02:42:25;17.60;75.10
63013;DHT22;62113;45.624;11.700;2022-09-27T02:44:51;17.60;75.30
63013;DHT22;62113;45.624;11.700;2022-09-27T02:47:59;17.50;75.60
63013;DHT22;62113;45.624;11.700;2022-09-27T02:56:02;17.30;76.10
63013;DHT22;62113;45.624;11.700;2022-09-27T02:58:48;17.30;76.30
63013;DHT22;62113;45.624;11.700;2022-09-27T03:07:02;17.20;76.00
63013;DHT22;62113;45.624;11.700;2022-09-27T03:09:38;17.30;76.00
63013;DHT22;62113;45.624;11.700;2022-09-27T03:12:05;17.30;75.90
63013;DHT22;62113;45.624;11.700;2022-09-27T03:14:30;17.20;76.10
63013;DHT22;62113;45.624;11.700;2022-09-27T03:16:56;17.30;76.00
63013;DHT22;62113;45.624;11.700;2022-09-27T03:19:22;17.30;75.90
63013;DHT22;62113;45.624;11.700;2022-09-27T03:21:49;17.20;76.00
63013;DHT22;62113;45.624;11.700;2022-09-27T03:24:14;17.20;76.00
63013;DHT22;62113;45.624;11.700;2022-09-27T03:26:40;17.20;75.90
63013;DHT22;62113;45.624;11.700;2022-09-27T03:29:06;17.20;76.10
63013;DHT22;62113;45.624;11.700;2022-09-27T03:31:31;17.30;75.90
63013;DHT22;62113;45.624;11.700;2022-09-27T03:33:57;17.40;75.40
63013;DHT22;62113;45.624;11.700;2022-09-27T03:36:22;17.40;75.20
63013;DHT22;62113;45.624;11.700;2022-09-27T03:38:48;17.40;75.30
63013;DHT22;62113;45.624;11.700;2022-09-27T03:41:14;17.30;75.30
63013;DHT22;62113;45.624;11.700;2022-09-27T03:43:39;17.40;75.20
63013;DHT22;62113;45.624;11.700;2022-09-27T03:46:05;17.40;75.20
63013;DHT22;62113;45.624;11.700;2022-09-27T03:48:31;17.50;74.90
63013;DHT22;62113;45.624;11.700;2022-09-27T03:50:56;17.40;74.90
63013;DHT22;62113;45.624;11.700;2022-09-27T03:53:22;17.40;74.70
63013;DHT22;62113;45.624;11.700;2022-09-27T03:55:48;17.40;74.70
63013;DHT22;62113;45.624;11.700;2022-09-27T03:58:14;17.40;74.80
63013;DHT22;62113;45.624;11.700;2022-09-27T04:00:39;17.40;74.60
63013;DHT22;62113;45.624;11.700;2022-09-27T04:03:06;17.40;74.80
63013;DHT22;62113;45.624;11.700;2022-09-27T04:05:32;17.30;74.90
63013;DHT22;62113;45.624;11.700;2022-09-27T04:07:58;17.20;75.00
63013;DHT22;62113;45.624;11.700;2022-09-27T04:10:24;17.20;75.60
63013;DHT22;62113;45.624;11.700;2022-09-27T04:12:50;17.20;75.80
63013;DHT22;62113;45.624;11.700;2022-09-27T04:15:15;17.10;75.90
63013;DHT22;62113;45.624;11.700;2022-09-27T04:17:42;17.10;76.00
63013;DHT22;62113;45.624;11.700;2022-09-27T04:20:09;17.10;76.20
63013;DHT22;62113;45.624;11.700;2022-09-27T04:22:38;17.10;76.30
63013;DHT22;62113;45.624;11.700;2022-09-27T04:25:07;17.00;76.10
63013;DHT22;62113;45.624;11.700;2022-09-27T04:27:33;17.10;76.00
63013;DHT22;62113;45.624;11.700;2022-09-27T04:29:58;17.10;75.80
63013;DHT22;62113;45.624;11.700;2022-09-27T04:32:24;17.10;75.80
63013;DHT22;62113;45.624;11.700;2022-09-27T04:34:49;17.00;75.60
63013;DHT22;62113;45.624;11.700;2022-09-27T04:37:34;17.00;75.30
63013;DHT22;62113;45.624;11.700;2022-09-27T04:40:01;16.90;75.40
63013;DHT22;62113;45.624;11.700;2022-09-27T04:42:27;16.90;75.90
63013;DHT22;62113;45.624;11.700;2022-09-27T04:44:52;16.90;76.50
63013;DHT22;62113;45.624;11.700;2022-09-27T04:47:18;17.00;76.30
63013;DHT22;62113;45.624;11.700;2022-09-27T04:49:48;17.00;76.50
63013;DHT22;62113;45.624;11.700;2022-09-27T04:52:14;17.10;76.30
63013;DHT22;62113;45.624;11.700;2022-09-27T04:54:40;17.10;76.20
63013;DHT22;62113;45.624;11.700;2022-09-27T04:57:06;17.20;76.20
63013;DHT22;62113;45.624;11.700;2022-09-27T04:59:32;17.20;76.00
63013;DHT22;62113;45.624;11.700;2022-09-27T05:01:57;17.20;76.00
63013;DHT22;62113;45.624;11.700;2022-09-27T05:04:26;17.30;75.90
63013;DHT22;62113;45.624;11.700;2022-09-27T05:06:52;17.30;76.10
63013;DHT22;62113;45.624;11.700;2022-09-27T05:09:18;17.30;76.30
63013;DHT22;62113;45.624;11.700;2022-09-27T05:11:44;17.30;76.10
63013;DHT22;62113;45.624;11.700;2022-09-27T05:14:09;17.30;76.10
63013;DHT22;62113;45.624;11.700;2022-09-27T05:16:36;17.30;75.90
63013;DHT22;62113;45.624;11.700;2022-09-27T05:19:02;17.30;75.60
63013;DHT22;62113;45.624;11.700;2022-09-27T05:21:28;17.40;75.50
63013;DHT22;62113;45.624;11.700;2022-09-27T05:23:53;17.40;75.40
63013;DHT22;62113;45.624;11.700;2022-09-27T05:26:19;17.40;75.80
63013;DHT22;62113;45.624;11.700;2022-09-27T05:28:45;17.40;76.10
63013;DHT22;62113;45.624;11.700;2022-09-27T05:31:12;17.40;76.10
63013;DHT22;62113;45.624;11.700;2022-09-27T05:33:39;17.40;76.00
63013;DHT22;62113;45.624;11.700;2022-09-27T05:36:05;17.50;76.00
63013;DHT22;62113;45.624;11.700;2022-09-27T05:38:30;17.50;76.20
63013;DHT22;62113;45.624;11.700;2022-09-27T05:40:56;17.40;76.30
63013;DHT22;62113;45.624;11.700;2022-09-27T05:43:22;17.50;76.00
63013;DHT22;62113;45.624;11.700;2022-09-27T05:45:48;17.40;76.00
63013;DHT22;62113;45.624;11.700;2022-09-27T05:48:14;17.40;76.10
63013;DHT22;62113;45.624;11.700;2022-09-27T05:50:40;17.40;76.30
63013;DHT22;62113;45.624;11.700;2022-09-27T05:53:06;17.40;76.30
63013;DHT22;62113;45.624;11.700;2022-09-27T05:55:31;17.40;76.40
63013;DHT22;62113;45.624;11.700;2022-09-27T05:57:59;17.40;76.40
63013;DHT22;62113;45.624;11.700;2022-09-27T06:00:26;17.40;76.40
63013;DHT22;62113;45.624;11.700;2022-09-27T06:03:03;17.40;76.40
63013;DHT22;62113;45.624;11.700;2022-09-27T06:05:30;17.40;76.30
63013;DHT22;62113;45.624;11.700;2022-09-27T06:08:01;17.40;76.60
63013;DHT22;62113;45.624;11.700;2022-09-27T06:10:28;17.40;76.30
63013;DHT22;62113;45.624;11.700;2022-09-27T06:12:58;17.40;75.60
63013;DHT22;62113;45.624;11.700;2022-09-27T06:15:24;17.40;75.40
63013;DHT22;62113;45.624;11.700;2022-09-27T06:17:50;17.40;75.80
63013;DHT22;62113;45.624;11.700;2022-09-27T06:20:15;17.40;75.40
63013;DHT22;62113;45.624;11.700;2022-09-27T06:22:42;17.40;75.40
63013;DHT22;62113;45.624;11.700;2022-09-27T06:25:10;17.40;75.30
63013;DHT22;62113;45.624;11.700;2022-09-27T06:27:36;17.40;75.20
63013;DHT22;62113;45.624;11.700;2022-09-27T06:30:03;17.40;75.60
63013;DHT22;62113;45.624;11.700;2022-09-27T06:32:29;17.30;75.90
63013;DHT22;62113;45.624;11.700;2022-09-27T06:34:55;17.30;75.70
63013;DHT22;62113;45.624;11.700;2022-09-27T06:37:24;17.30;76.30
63013;DHT22;62113;45.624;11.700;2022-09-27T06:39:50;17.30;76.90
63013;DHT22;62113;45.624;11.700;2022-09-27T06:42:17;17.30;77.20
63013;DHT22;62113;45.624;11.700;2022-09-27T06:44:43;17.30;76.80
63013;DHT22;62113;45.624;11.700;2022-09-27T06:47:17;17.30;76.70
63013;DHT22;62113;45.624;11.700;2022-09-27T06:49:43;17.30;76.50
63013;DHT22;62113;45.624;11.700;2022-09-27T06:52:09;17.30;76.20
63013;DHT22;62113;45.624;11.700;2022-09-27T06:54:35;17.30;75.90
63013;DHT22;62113;45.624;11.700;2022-09-27T06:57:01;17.30;75.80
63013;DHT22;62113;45.624;11.700;2022-09-27T06:59:27;17.30;76.90
63013;DHT22;62113;45.624;11.700;2022-09-27T07:02:11;17.40;77.00
63013;DHT22;62113;45.624;11.700;2022-09-27T07:04:37;17.60;77.10
63013;DHT22;62113;45.624;11.700;2022-09-27T07:07:03;17.70;77.60
63013;DHT22;62113;45.624;11.700;2022-09-27T07:09:28;17.70;77.10
63013;DHT22;62113;45.624;11.700;2022-09-27T07:11:54;17.80;76.70
63013;DHT22;62113;45.624;11.700;2022-09-27T07:14:20;17.80;76.90
63013;DHT22;62113;45.624;11.700;2022-09-27T07:16:46;17.80;77.20
63013;DHT22;62113;45.624;11.700;2022-09-27T07:19:11;17.90;76.90
63013;DHT22;62113;45.624;11.700;2022-09-27T07:21:38;17.90;76.70
63013;DHT22;62113;45.624;11.700;2022-09-27T07:24:04;17.90;76.70
63013;DHT22;62113;45.624;11.700;2022-09-27T07:26:30;17.90;76.60
63013;DHT22;62113;45.624;11.700;2022-09-27T07:28:55;17.90;76.30
63013;DHT22;62113;45.624;11.700;2022-09-27T07:31:22;17.90;76.10
63013;DHT22;62113;45.624;11.700;2022-09-27T07:33:49;17.90;75.90
63013;DHT22;62113;45.624;11.700;2022-09-27T07:36:14;18.00;76.30
63013;DHT22;62113;45.624;11.700;2022-09-27T07:38:40;17.90;76.30
63013;DHT22;62113;45.624;11.700;2022-09-27T07:41:11;18.00;76.10
63013;DHT22;62113;45.624;11.700;2022-09-27T07:43:38;18.00;75.90
63013;DHT22;62113;45.624;11.700;2022-09-27T07:46:04;18.10;75.50
63013;DHT22;62113;45.624;11.700;2022-09-27T07:48:30;18.20;74.80
63013;DHT22;62113;45.624;11.700;2022-09-27T07:50:56;18.20;74.00
63013;DHT22;62113;45.624;11.700;2022-09-27T07:53:21;18.20;74.60
63013;DHT22;62113;45.624;11.700;2022-09-27T07:55:51;18.20;74.70
63013;DHT22;62113;45.624;11.700;2022-09-27T07:58:18;18.30;75.10
63013;DHT22;62113;45.624;11.700;2022-09-27T08:00:45;18.50;75.40
63013;DHT22;62113;45.624;11.700;2022-09-27T08:03:13;18.60;76.30
63013;DHT22;62113;45.624;11.700;2022-09-27T08:05:45;18.80;75.70
63013;DHT22;62113;45.624;11.700;2022-09-27T08:08:12;18.90;74.80
63013;DHT22;62113;45.624;11.700;2022-09-27T08:10:38;19.10;74.50
63013;DHT22;62113;45.624;11.700;2022-09-27T08:13:09;19.20;74.00
63013;DHT22;62113;45.624;11.700;2022-09-27T08:15:35;19.20;73.30
63013;DHT22;62113;45.624;11.700;2022-09-27T08:18:06;19.20;73.10
63013;DHT22;62113;45.624;11.700;2022-09-27T08:20:32;19.20;72.80
63013;DHT22;62113;45.624;11.700;2022-09-27T08:22:57;19.20;72.80
63013;DHT22;62113;45.624;11.700;2022-09-27T08:25:23;19.30;73.20
63013;DHT22;62113;45.624;11.700;2022-09-27T08:27:59;19.40;73.20
63013;DHT22;62113;45.624;11.700;2022-09-27T08:30:26;19.70;72.70
63013;DHT22;62113;45.624;11.700;2022-09-27T08:32:59;19.90;71.50
63013;DHT22;62113;45.624;11.700;2022-09-27T08:35:25;20.20;72.10
63013;DHT22;62113;45.624;11.700;2022-09-27T08:37:56;20.50;70.70
63013;DHT22;62113;45.624;11.700;2022-09-27T08:46:11;21.50;69.40
63013;DHT22;62113;45.624;11.700;2022-09-27T08:48:38;21.80;69.00
63013;DHT22;62113;45.624;11.700;2022-09-27T08:51:06;22.20;65.90
63013;DHT22;62113;45.624;11.700;2022-09-27T08:53:40;22.30;65.00
63013;DHT22;62113;45.624;11.700;2022-09-27T08:56:08;22.60;65.80
63013;DHT22;62113;45.624;11.700;2022-09-27T08:58:35;22.70;65.40
63013;DHT22;62113;45.624;11.700;2022-09-27T09:01:10;22.80;64.30
63013;DHT22;62113;45.624;11.700;2022-09-27T09:06:39;22.90;63.80
63013;DHT22;62113;45.624;11.700;2022-09-27T09:09:27;22.80;63.20
63013;DHT22;62113;45.624;11.700;2022-09-27T09:31:42;23.20;57.30
63013;DHT22;62113;45.624;11.700;2022-09-27T09:37:03;22.90;57.20
63013;DHT22;62113;45.624;11.700;2022-09-27T09:40:16;22.80;56.80
63013;DHT22;62113;45.624;11.700;2022-09-27T09:42:36;22.70;58.60
63013;DHT22;62113;45.624;11.700;2022-09-27T09:45:37;22.60;58.40
63013;DHT22;62113;45.624;11.700;2022-09-27T09:48:29;22.50;59.40
63013;DHT22;62113;45.624;11.700;2022-09-27T09:50:58;22.50;60.10
63013;DHT22;62113;45.624;11.700;2022-09-27T09:56:09;22.60;60.50
63013;DHT22;62113;45.624;11.700;2022-09-27T09:58:47;22.70;60.70
63013;DHT22;62113;45.624;11.700;2022-09-27T10:01:37;22.90;60.70
63013;DHT22;62113;45.624;11.700;2022-09-27T10:04:04;23.00;58.30
63013;DHT22;62113;45.624;11.700;2022-09-27T10:06:31;23.10;58.50
63013;DHT22;62113;45.624;11.700;2022-09-27T10:08:56;23.20;58.80
63013;DHT22;62113;45.624;11.700;2022-09-27T10:11:30;23.20;59.30
63013;DHT22;62113;45.624;11.700;2022-09-27T10:13:57;23.40;59.50
63013;DHT22;62113;45.624;11.700;2022-09-27T10:16:24;23.50;59.50
63013;DHT22;62113;45.624;11.700;2022-09-27T10:18:56;23.70;59.60
63013;DHT22;62113;45.624;11.700;2022-09-27T10:21:25;23.90;59.20
63013;DHT22;62113;45.624;11.700;2022-09-27T10:24:05;23.90;59.00
63013;DHT22;62113;45.624;11.700;2022-09-27T10:26:32;24.00;58.90
63013;DHT22;62113;45.624;11.700;2022-09-27T10:29:34;24.00;58.60
63013;DHT22;62113;45.624;11.700;2022-09-27T10:32:01;24.20;58.40
63013;DHT22;62113;45.624;11.700;2022-09-27T10:34:40;24.20;58.10
63013;DHT22;62113;45.624;11.700;2022-09-27T10:37:16;24.30;58.10
63013;DHT22;62113;45.624;11.700;2022-09-27T10:39:46;24.40;58.00
63013;DHT22;62113;45.624;11.700;2022-09-27T10:44:48;24.60;57.60
63013;DHT22;62113;45.624;11.700;2022-09-27T10:47:18;24.70;57.60
63013;DHT22;62113;45.624;11.700;2022-09-27T10:49:47;24.60;56.80
63013;DHT22;62113;45.624;11.700;2022-09-27T10:52:21;24.50;56.40
63013;DHT22;62113;45.624;11.700;2022-09-27T10:57:28;24.40;56.40
63013;DHT22;62113;45.624;11.700;2022-09-27T10:59:57;24.50;56.70
63013;DHT22;62113;45.624;11.700;2022-09-27T11:02:31;24.50;56.80
63013;DHT22;62113;45.624;11.700;2022-09-27T11:08:01;24.40;54.90
63013;DHT22;62113;45.624;11.700;2022-09-27T11:10:31;24.20;54.30
63013;DHT22;62113;45.624;11.700;2022-09-27T11:13:23;24.20;55.20
63013;DHT22;62113;45.624;11.700;2022-09-27T11:24:28;24.00;54.10
63013;DHT22;62113;45.624;11.700;2022-09-27T11:27:18;23.90;54.90
63013;DHT22;62113;45.624;11.700;2022-09-27T11:38:27;23.70;55.50
63013;DHT22;62113;45.624;11.700;2022-09-27T11:41:19;23.70;55.90
63013;DHT22;62113;45.624;11.700;2022-09-27T11:46:47;23.70;56.20
63013;DHT22;62113;45.624;11.700;2022-09-27T11:55:19;23.70;55.50
63013;DHT22;62113;45.624;11.700;2022-09-27T11:57:59;23.70;55.00
63013;DHT22;62113;45.624;11.700;2022-09-27T12:06:15;23.60;55.60
63013;DHT22;62113;45.624;11.700;2022-09-27T12:11:33;23.60;56.10
63013;DHT22;62113;45.624;11.700;2022-09-27T12:16:30;23.50;55.60
63013;DHT22;62113;45.624;11.700;2022-09-27T12:18:57;23.40;56.00
63013;DHT22;62113;45.624;11.700;2022-09-27T12:21:30;23.30;56.00
63013;DHT22;62113;45.624;11.700;2022-09-27T12:23:57;23.20;55.50
63013;DHT22;62113;45.624;11.700;2022-09-27T12:26:27;23.20;56.20
63013;DHT22;62113;45.624;11.700;2022-09-27T12:34:47;23.00;56.90
63013;DHT22;62113;45.624;11.700;2022-09-27T12:37:26;22.90;56.60
63013;DHT22;62113;45.624;11.700;2022-09-27T12:40:04;23.00;56.80
63013;DHT22;62113;45.624;11.700;2022-09-27T12:45:00;22.90;56.60
63013;DHT22;62113;45.624;11.700;2022-09-27T12:53:13;23.00;58.00
63013;DHT22;62113;45.624;11.700;2022-09-27T12:58:59;23.00;57.90
63013;DHT22;62113;45.624;11.700;2022-09-27T13:07:17;23.00;58.00
63013;DHT22;62113;45.624;11.700;2022-09-27T13:12:59;23.10;58.40
63013;DHT22;62113;45.624;11.700;2022-09-27T13:15:32;23.20;58.10
63013;DHT22;62113;45.624;11.700;2022-09-27T13:18:00;23.20;58.10
63013;DHT22;62113;45.624;11.700;2022-09-27T13:31:14;23.20;55.80
63013;DHT22;62113;45.624;11.700;2022-09-27T13:33:52;23.20;55.00
63013;DHT22;62113;45.624;11.700;2022-09-27T13:46:50;22.90;56.70
63013;DHT22;62113;45.624;11.700;2022-09-27T13:49:41;22.90;55.70
63013;DHT22;62113;45.624;11.700;2022-09-27T13:52:31;23.00;54.60
63013;DHT22;62113;45.624;11.700;2022-09-27T13:55:03;23.00;55.30
63013;DHT22;62113;45.624;11.700;2022-09-27T14:00:03;23.10;55.50
63013;DHT22;62113;45.624;11.700;2022-09-27T14:02:37;23.10;55.90
63013;DHT22;62113;45.624;11.700;2022-09-27T14:05:09;23.20;55.20
63013;DHT22;62113;45.624;11.700;2022-09-27T14:07:41;23.20;53.40
63013;DHT22;62113;45.624;11.700;2022-09-27T14:10:16;23.20;54.10
63013;DHT22;62113;45.624;11.700;2022-09-27T14:12:43;23.20;54.40
63013;DHT22;62113;45.624;11.700;2022-09-27T14:15:22;23.30;54.80
63013;DHT22;62113;45.624;11.700;2022-09-27T14:17:49;23.30;54.90
63013;DHT22;62113;45.624;11.700;2022-09-27T14:20:35;23.30;54.60
63013;DHT22;62113;45.624;11.700;2022-09-27T14:23:02;23.40;54.60
63013;DHT22;62113;45.624;11.700;2022-09-27T14:25:28;23.40;54.60
63013;DHT22;62113;45.624;11.700;2022-09-27T14:27:54;23.40;54.70
63013;DHT22;62113;45.624;11.700;2022-09-27T14:30:22;23.50;54.80
63013;DHT22;62113;45.624;11.700;2022-09-27T14:32:53;23.50;54.60
63013;DHT22;62113;45.624;11.700;2022-09-27T14:35:27;23.50;54.50
63013;DHT22;62113;45.624;11.700;2022-09-27T14:38:15;23.50;54.00
63013;DHT22;62113;45.624;11.700;2022-09-27T14:41:01;23.50;54.20
63013;DHT22;62113;45.624;11.700;2022-09-27T14:43:28;23.60;54.40
63013;DHT22;62113;45.624;11.700;2022-09-27T14:45:59;23.60;53.70
63013;DHT22;62113;45.624;11.700;2022-09-27T14:48:33;23.70;53.10
63013;DHT22;62113;45.624;11.700;2022-09-27T14:51:20;23.70;51.30
63013;DHT22;62113;45.624;11.700;2022-09-27T14:53:47;23.70;52.00
63013;DHT22;62113;45.624;11.700;2022-09-27T14:56:18;23.70;52.30
63013;DHT22;62113;45.624;11.700;2022-09-27T14:58:48;23.80;52.50
63013;DHT22;62113;45.624;11.700;2022-09-27T15:01:18;23.80;52.70
63013;DHT22;62113;45.624;11.700;2022-09-27T15:03:46;23.90;52.80
63013;DHT22;62113;45.624;11.700;2022-09-27T15:06:14;23.90;52.90
63013;DHT22;62113;45.624;11.700;2022-09-27T15:08:40;23.90;52.90
63013;DHT22;62113;45.624;11.700;2022-09-27T15:11:06;23.90;53.20
63013;DHT22;62113;45.624;11.700;2022-09-27T15:13:35;23.90;53.40
63013;DHT22;62113;45.624;11.700;2022-09-27T15:16:07;23.90;53.40
63013;DHT22;62113;45.624;11.700;2022-09-27T15:21:04;23.90;53.50
63013;DHT22;62113;45.624;11.700;2022-09-27T15:23:36;23.80;53.00
63013;DHT22;62113;45.624;11.700;2022-09-27T15:28:48;23.70;53.60
63013;DHT22;62113;45.624;11.700;2022-09-27T15:31:16;23.70;54.00
63013;DHT22;62113;45.624;11.700;2022-09-27T15:33:49;23.60;54.50
63013;DHT22;62113;45.624;11.700;2022-09-27T15:39:11;23.40;54.50
63013;DHT22;62113;45.624;11.700;2022-09-27T15:42:01;23.30;54.70
63013;DHT22;62113;45.624;11.700;2022-09-27T15:49:57;23.10;55.00
63013;DHT22;62113;45.624;11.700;2022-09-27T15:52:43;23.00;55.30
63013;DHT22;62113;45.624;11.700;2022-09-27T15:55:13;22.90;55.60
63013;DHT22;62113;45.624;11.700;2022-09-27T15:57:39;22.80;55.80
63013;DHT22;62113;45.624;11.700;2022-09-27T16:00:11;22.70;56.30
63013;DHT22;62113;45.624;11.700;2022-09-27T16:02:37;22.70;56.30
63013;DHT22;62113;45.624;11.700;2022-09-27T16:05:03;22.70;56.30
63013;DHT22;62113;45.624;11.700;2022-09-27T16:07:29;22.60;56.50
63013;DHT22;62113;45.624;11.700;2022-09-27T16:09:54;22.50;56.70
63013;DHT22;62113;45.624;11.700;2022-09-27T16:12:20;22.50;56.80
63013;DHT22;62113;45.624;11.700;2022-09-27T16:14:46;22.50;56.80
63013;DHT22;62113;45.624;11.700;2022-09-27T16:17:13;22.40;56.70
63013;DHT22;62113;45.624;11.700;2022-09-27T16:19:39;22.30;57.10
63013;DHT22;62113;45.624;11.700;2022-09-27T16:22:05;22.30;57.10
63013;DHT22;62113;45.624;11.700;2022-09-27T16:24:30;22.30;57.50
63013;DHT22;62113;45.624;11.700;2022-09-27T16:26:57;22.30;57.30
63013;DHT22;62113;45.624;11.700;2022-09-27T16:29:22;22.30;57.70
63013;DHT22;62113;45.624;11.700;2022-09-27T16:31:48;22.20;57.70
63013;DHT22;62113;45.624;11.700;2022-09-27T16:34:15;22.20;57.90
63013;DHT22;62113;45.624;11.700;2022-09-27T16:36:41;22.20;58.00
63013;DHT22;62113;45.624;11.700;2022-09-27T16:39:09;22.20;58.20
63013;DHT22;62113;45.624;11.700;2022-09-27T16:41:37;22.20;58.10
63013;DHT22;62113;45.624;11.700;2022-09-27T16:44:07;22.10;58.10
63013;DHT22;62113;45.624;11.700;2022-09-27T16:46:33;22.10;57.90
63013;DHT22;62113;45.624;11.700;2022-09-27T16:48:59;22.00;58.10
63013;DHT22;62113;45.624;11.700;2022-09-27T16:51:25;21.90;58.10
63013;DHT22;62113;45.624;11.700;2022-09-27T16:54:10;21.80;58.20
63013;DHT22;62113;45.624;11.700;2022-09-27T16:56:36;21.80;58.40
63013;DHT22;62113;45.624;11.700;2022-09-27T16:59:03;21.70;58.80
63013;DHT22;62113;45.624;11.700;2022-09-27T17:01:32;21.70;59.00
63013;DHT22;62113;45.624;11.700;2022-09-27T17:03:58;21.70;59.40
63013;DHT22;62113;45.624;11.700;2022-09-27T17:06:25;21.60;59.90
63013;DHT22;62113;45.624;11.700;2022-09-27T17:08:51;21.60;60.30
63013;DHT22;62113;45.624;11.700;2022-09-27T17:11:18;21.60;60.60
63013;DHT22;62113;45.624;11.700;2022-09-27T17:13:44;21.50;60.70
63013;DHT22;62113;45.624;11.700;2022-09-27T17:16:10;21.50;60.80
63013;DHT22;62113;45.624;11.700;2022-09-27T17:18:38;21.40;60.90
63013;DHT22;62113;45.624;11.700;2022-09-27T17:21:05;21.30;61.30
63013;DHT22;62113;45.624;11.700;2022-09-27T17:23:31;21.20;61.30
63013;DHT22;62113;45.624;11.700;2022-09-27T17:26:22;21.20;61.50
63013;DHT22;62113;45.624;11.700;2022-09-27T17:28:47;21.10;61.60
63013;DHT22;62113;45.624;11.700;2022-09-27T17:31:15;21.10;61.50
63013;DHT22;62113;45.624;11.700;2022-09-27T17:33:48;21.10;61.20
63013;DHT22;62113;45.624;11.700;2022-09-27T17:36:16;21.10;60.80
63013;DHT22;62113;45.624;11.700;2022-09-27T17:38:43;21.00;60.70
63013;DHT22;62113;45.624;11.700;2022-09-27T17:41:11;21.00;60.60
63013;DHT22;62113;45.624;11.700;2022-09-27T17:43:38;20.90;60.90
63013;DHT22;62113;45.624;11.700;2022-09-27T17:46:08;20.90;61.10
63013;DHT22;62113;45.624;11.700;2022-09-27T17:48:35;20.80;61.30
63013;DHT22;62113;45.624;11.700;2022-09-27T17:51:20;20.80;61.40
63013;DHT22;62113;45.624;11.700;2022-09-27T17:53:46;20.70;61.00
63013;DHT22;62113;45.624;11.700;2022-09-27T17:56:12;20.70;60.80
63013;DHT22;62113;45.624;11.700;2022-09-27T17:58:39;20.60;61.00
63013;DHT22;62113;45.624;11.700;2022-09-27T18:01:09;20.50;61.00
63013;DHT22;62113;45.624;11.700;2022-09-27T18:03:34;20.50;60.70
63013;DHT22;62113;45.624;11.700;2022-09-27T18:06:07;20.40;60.50
63013;DHT22;62113;45.624;11.700;2022-09-27T18:08:33;20.40;60.60
63013;DHT22;62113;45.624;11.700;2022-09-27T18:11:04;20.30;60.80
63013;DHT22;62113;45.624;11.700;2022-09-27T18:13:30;20.30;60.80
63013;DHT22;62113;45.624;11.700;2022-09-27T18:15:56;20.20;61.10
63013;DHT22;62113;45.624;11.700;2022-09-27T18:18:23;20.20;61.30
63013;DHT22;62113;45.624;11.700;2022-09-27T18:20:52;20.20;61.00
63013;DHT22;62113;45.624;11.700;2022-09-27T18:23:19;20.20;60.90
63013;DHT22;62113;45.624;11.700;2022-09-27T18:25:52;20.10;61.00
63013;DHT22;62113;45.624;11.700;2022-09-27T18:28:18;20.10;61.00
63013;DHT22;62113;45.624;11.700;2022-09-27T18:30:44;20.10;60.40
63013;DHT22;62113;45.624;11.700;2022-09-27T18:33:09;20.10;60.40